Main page
Satellite images 10-day forecastsClimateMarine weather Cyclones Lightning AirportsFAQ Newsletter About
Weather : Europe Africa North America South America Asia Australia-Oceania Others
Languages Contact

Istanbul Atatürk, Turkey

Istanbul Atatürk Airport

latitude: 40-58N, longitude: 028-49E, elevation: 48 m


METAR: LTBA 020550Z VRB05KT CAVOK 26/21 Q1011 NOSIG
TAF: LTBA 020440Z 0206/0312 VRB02KT CAVOK

Time: 09:22 (06:22 UTC)

Current weather observation

The report was made 32 minutes ago, at 05:50 UTC
Wind 5 kt from variable directions
Temperature 26°C
Humidity 74%
Pressure 1011 hPa
Visibility 10 km or more
no clouds below 1500 m and no cumulonimbus

Change units

Forecast

The report was made 1 hour and 42 minutes ago, at 04:40 UTC
Forecast valid from 02 at 06 UTC to 03 at 12 UTC
Wind 2 kt from variable directions
Visibility 10 km or more
no clouds below 1500 m and no cumulonimbus
The information on this site is subject to a disclaimer
Weather : Europe Africa North America South America Asia Australia-Oceania Others
Satellite images 10-day forecastsClimateMarine weather Cyclones Lightning AirportsFAQ Languages Contact Newsletter About